createdAt,value
2023-02-15T00:02:04.781Z,3.15
2023-02-15T00:04:46.210Z,2.88
2023-02-15T00:07:16.019Z,2.78
2023-02-15T00:09:44.074Z,2.39
2023-02-15T00:12:11.786Z,2.71
2023-02-15T00:14:40.642Z,2.54
2023-02-15T00:17:08.162Z,2.56
2023-02-15T00:19:35.632Z,2.26
2023-02-15T00:22:03.343Z,1.98
2023-02-15T00:24:30.846Z,1.79
2023-02-15T00:26:58.348Z,2.25
2023-02-15T00:29:26.465Z,2.63
2023-02-15T00:31:55.444Z,2.54
2023-02-15T00:34:25.289Z,2.25
2023-02-15T00:36:53.434Z,2.65
2023-02-15T00:39:21.525Z,2.88
2023-02-15T00:41:49.270Z,3.04
2023-02-15T00:44:17.202Z,2.90
2023-02-15T00:46:44.698Z,2.83
2023-02-15T00:49:13.554Z,2.71
2023-02-15T00:51:41.366Z,2.47
2023-02-15T00:54:09.336Z,2.15
2023-02-15T00:56:36.823Z,1.99
2023-02-15T00:59:04.593Z,1.64
2023-02-15T01:01:32.155Z,1.75
2023-02-15T01:03:59.712Z,1.99
2023-02-15T01:06:28.586Z,1.37
2023-02-15T01:08:56.046Z,1.11
2023-02-15T01:11:26.150Z,1.44
2023-02-15T01:13:55.206Z,1.15
2023-02-15T01:16:23.839Z,1.86
2023-02-15T01:18:51.509Z,2.03
2023-02-15T01:21:21.056Z,2.22
2023-02-15T01:23:50.155Z,2.41
2023-02-15T01:26:18.661Z,2.33
2023-02-15T01:28:46.851Z,2.10
2023-02-15T01:31:17.984Z,2.38
2023-02-15T01:33:45.757Z,2.38
2023-02-15T01:36:13.264Z,2.18
2023-02-15T01:38:42.608Z,1.92
2023-02-15T01:41:24.828Z,2.12
2023-02-15T01:43:54.867Z,2.12
2023-02-15T01:46:28.249Z,2.48
2023-02-15T01:49:00.822Z,2.10
2023-02-15T01:51:31.456Z,2.05
2023-02-15T01:54:04.450Z,1.77
2023-02-15T01:56:36.777Z,2.22
2023-02-15T01:59:08.983Z,2.08
2023-02-15T02:01:37.046Z,1.66
2023-02-15T02:04:13.744Z,1.30
2023-02-15T02:06:41.594Z,1.72
2023-02-15T02:09:09.622Z,1.46
2023-02-15T02:11:40.062Z,1.20
2023-02-15T02:14:07.652Z,1.44
2023-02-15T02:16:44.498Z,1.72
2023-02-15T02:19:50.418Z,1.38
2023-02-15T02:22:46.472Z,1.56
2023-02-15T02:25:37.448Z,1.22
2023-02-15T02:28:16.824Z,1.44
2023-02-15T02:31:02.588Z,1.85
2023-02-15T02:33:53.660Z,1.69
2023-02-15T02:36:31.007Z,1.89
2023-02-15T02:39:11.626Z,1.87
2023-02-15T02:41:47.926Z,1.92
2023-02-15T02:44:21.100Z,1.86
2023-02-15T02:46:53.438Z,2.10
2023-02-15T02:49:32.557Z,1.69
2023-02-15T02:52:01.351Z,1.75
2023-02-15T02:54:29.854Z,1.42
2023-02-15T02:57:01.190Z,1.35
2023-02-15T02:59:34.807Z,1.59
2023-02-15T03:02:08.836Z,1.11
2023-02-15T03:04:41.246Z,0.94
2023-02-15T03:07:12.809Z,0.84
2023-02-15T03:09:43.526Z,1.34
2023-02-15T03:12:15.205Z,1.63
2023-02-15T03:14:45.158Z,1.46
2023-02-15T03:17:14.632Z,1.18
2023-02-15T03:19:46.783Z,1.37
2023-02-15T03:22:20.367Z,1.95
2023-02-15T03:24:53.273Z,2.19
2023-02-15T03:27:24.279Z,2.00
2023-02-15T03:29:57.151Z,1.84
2023-02-15T03:32:27.199Z,1.43
2023-02-15T03:34:56.621Z,1.14
2023-02-15T03:37:31.566Z,1.55
2023-02-15T03:40:26.720Z,1.94
2023-02-15T03:43:01.895Z,1.91
2023-02-15T03:45:32.771Z,1.92
2023-02-15T03:48:02.583Z,1.63
2023-02-15T03:50:51.637Z,1.21
2023-02-15T03:53:22.255Z,1.19
2023-02-15T03:55:50.372Z,1.38
2023-02-15T03:58:35.782Z,1.57
2023-02-15T04:01:34.748Z,1.95
2023-02-15T04:04:07.919Z,2.07
2023-02-15T04:06:36.724Z,1.85
2023-02-15T04:09:21.724Z,1.84
2023-02-15T04:11:49.227Z,1.90
2023-02-15T04:14:34.166Z,2.06
2023-02-15T04:17:01.616Z,2.04
2023-02-15T04:19:46.585Z,2.14
2023-02-15T04:22:32.837Z,2.15
2023-02-15T04:25:13.287Z,2.20
2023-02-15T04:27:41.996Z,2.09
2023-02-15T04:30:10.540Z,2.02
2023-02-15T04:32:38.420Z,1.46
2023-02-15T04:35:07.650Z,1.67
2023-02-15T04:37:36.887Z,1.97
2023-02-15T04:40:05.120Z,1.97
2023-02-15T04:42:32.903Z,2.04
2023-02-15T04:45:00.448Z,2.11
2023-02-15T04:47:28.046Z,1.67
2023-02-15T04:49:57.308Z,1.69
2023-02-15T04:52:25.714Z,1.66
2023-02-15T04:54:54.517Z,1.87
2023-02-15T04:57:21.995Z,2.05
2023-02-15T04:59:49.471Z,2.15
2023-02-15T05:02:16.972Z,1.37
2023-02-15T05:04:44.439Z,1.26
2023-02-15T05:07:11.906Z,1.45
2023-02-15T05:09:39.477Z,1.68
2023-02-15T05:12:08.718Z,1.80
2023-02-15T05:14:36.206Z,2.03
2023-02-15T05:17:04.209Z,2.10
2023-02-15T05:19:31.650Z,2.29
2023-02-15T05:21:59.134Z,2.09
2023-02-15T05:24:44.325Z,2.05
2023-02-15T05:27:32.124Z,2.22
2023-02-15T05:29:59.716Z,1.76
2023-02-15T05:32:27.514Z,1.67
2023-02-15T05:34:55.075Z,1.96
2023-02-15T05:37:22.537Z,1.76
2023-02-15T05:39:50.027Z,1.87
2023-02-15T05:42:18.845Z,2.24
2023-02-15T05:44:46.297Z,2.43
2023-02-15T05:47:13.762Z,2.11
2023-02-15T05:49:41.281Z,1.84
2023-02-15T05:52:09.173Z,1.72
2023-02-15T05:54:36.645Z,2.13
2023-02-15T05:57:04.308Z,1.86
2023-02-15T05:59:33.092Z,2.12
2023-02-15T06:02:00.590Z,1.81
2023-02-15T06:04:28.387Z,1.59
2023-02-15T06:06:55.840Z,1.54
2023-02-15T06:09:23.322Z,1.92
2023-02-15T06:11:50.921Z,1.98
2023-02-15T06:14:18.478Z,2.01
2023-02-15T06:16:47.305Z,1.90
2023-02-15T06:19:14.776Z,2.10
2023-02-15T06:21:42.252Z,2.05
2023-02-15T06:24:10.206Z,1.95
2023-02-15T06:26:37.818Z,1.78
2023-02-15T06:29:05.441Z,1.48
2023-02-15T06:31:33.083Z,1.75
2023-02-15T06:34:02.769Z,1.66
2023-02-15T06:36:30.399Z,1.89
2023-02-15T06:38:57.991Z,1.76
2023-02-15T06:41:25.726Z,1.65
2023-02-15T06:43:53.321Z,1.82
2023-02-15T06:46:20.968Z,1.61
2023-02-15T06:48:48.521Z,1.43
2023-02-15T06:51:17.320Z,1.48
2023-02-15T06:53:44.844Z,1.63
2023-02-15T06:56:13.034Z,1.30
2023-02-15T06:58:41.774Z,1.57
2023-02-15T07:01:10.342Z,1.49
2023-02-15T07:03:37.847Z,1.17
2023-02-15T07:06:09.175Z,1.36
2023-02-15T07:08:38.696Z,1.08
2023-02-15T07:11:24.537Z,0.94
2023-02-15T07:13:53.234Z,1.11
2023-02-15T07:16:21.262Z,0.96
2023-02-15T07:18:48.786Z,0.64
2023-02-15T07:21:16.228Z,0.45
2023-02-15T07:23:45.037Z,0.47
2023-02-15T07:26:12.844Z,0.45
2023-02-15T07:28:40.333Z,0.78
2023-02-15T07:31:07.833Z,0.76
2023-02-15T07:33:36.076Z,0.97
2023-02-15T07:36:05.670Z,1.00
2023-02-15T07:38:35.497Z,1.03
2023-02-15T07:41:06.184Z,0.87
2023-02-15T07:43:35.501Z,0.82
2023-02-15T07:46:04.049Z,0.67
2023-02-15T07:48:31.771Z,0.72
2023-02-15T07:51:00.843Z,0.88
2023-02-15T07:53:28.481Z,1.04
2023-02-15T07:55:56.760Z,1.15
2023-02-15T07:58:45.925Z,1.22
2023-02-15T08:01:13.629Z,1.24
2023-02-15T08:03:41.158Z,1.44
2023-02-15T08:06:09.265Z,1.48
2023-02-15T08:08:36.993Z,1.22
2023-02-15T08:11:24.346Z,1.34
2023-02-15T08:14:00.138Z,1.53
2023-02-15T08:16:30.850Z,1.87
2023-02-15T08:18:59.293Z,1.72
2023-02-15T08:21:28.859Z,1.36
2023-02-15T08:23:56.838Z,1.68
2023-02-15T08:26:25.574Z,1.56
2023-02-15T08:28:54.922Z,1.11
2023-02-15T08:31:22.947Z,1.46
2023-02-15T08:33:52.835Z,1.82
2023-02-15T08:36:22.321Z,1.63
2023-02-15T08:38:50.485Z,1.71
2023-02-15T08:41:20.854Z,1.32
2023-02-15T08:43:51.993Z,1.30
2023-02-15T08:46:21.847Z,1.16
2023-02-15T08:48:50.742Z,1.06
2023-02-15T08:51:19.904Z,1.20
2023-02-15T08:53:50.254Z,1.19
2023-02-15T08:56:18.376Z,1.14
2023-02-15T08:58:46.201Z,1.19
2023-02-15T09:01:18.799Z,1.34
2023-02-15T09:03:48.835Z,1.61
2023-02-15T09:06:16.745Z,1.35
2023-02-15T09:08:44.736Z,1.22
2023-02-15T09:11:14.354Z,1.40
2023-02-15T09:13:41.868Z,1.12
2023-02-15T09:16:11.276Z,1.17
2023-02-15T09:18:40.964Z,1.26
2023-02-15T09:21:14.249Z,1.40
2023-02-15T09:23:42.181Z,1.31
2023-02-15T09:26:11.948Z,1.61
2023-02-15T09:28:39.947Z,1.40
2023-02-15T09:31:09.740Z,1.52
2023-02-15T09:33:38.248Z,1.83
2023-02-15T09:36:06.478Z,1.88
2023-02-15T09:38:35.286Z,1.42
2023-02-15T09:41:21.468Z,1.69
2023-02-15T09:43:58.754Z,1.51
2023-02-15T09:46:49.721Z,1.72
2023-02-15T09:49:29.493Z,2.12
2023-02-15T09:52:17.272Z,1.60
2023-02-15T09:55:00.944Z,1.86
2023-02-15T09:57:38.215Z,2.09
2023-02-15T10:00:14.925Z,1.99
2023-02-15T10:03:01.014Z,2.30
2023-02-15T10:05:38.598Z,2.04
2023-02-15T10:08:24.927Z,1.69
2023-02-15T10:11:24.855Z,2.49
2023-02-15T10:14:05.329Z,2.35
2023-02-15T10:16:48.478Z,2.19
2023-02-15T10:19:26.626Z,2.39
2023-02-15T10:22:05.670Z,2.29
2023-02-15T10:24:50.229Z,2.54
2023-02-15T10:27:22.235Z,2.48
2023-02-15T10:30:03.351Z,2.53
2023-02-15T10:32:37.656Z,2.04
2023-02-15T10:35:17.215Z,2.03
2023-02-15T10:37:59.497Z,2.62
2023-02-15T10:40:35.147Z,2.77
2023-02-15T10:43:23.822Z,3.34
2023-02-15T10:46:00.479Z,3.41
2023-02-15T10:48:46.330Z,4.06
2023-02-15T10:51:19.551Z,4.13
2023-02-15T10:54:02.357Z,3.91
2023-02-15T10:56:37.251Z,4.22
2023-02-15T10:59:34.506Z,4.28
2023-02-15T11:02:12.429Z,4.14
2023-02-15T11:04:50.533Z,3.90
2023-02-15T11:07:22.061Z,3.95
2023-02-15T11:09:54.276Z,4.12
2023-02-15T11:12:25.919Z,4.01
2023-02-15T11:14:59.368Z,3.78
2023-02-15T11:17:33.114Z,4.17
2023-02-15T11:20:06.345Z,3.88
2023-02-15T11:22:35.635Z,3.46
2023-02-15T11:25:16.075Z,3.26
2023-02-15T11:27:45.564Z,3.12
2023-02-15T11:30:21.860Z,3.01
2023-02-15T11:32:52.760Z,2.55
2023-02-15T11:35:26.396Z,2.54
2023-02-15T11:37:59.281Z,3.04
2023-02-15T11:40:32.197Z,2.74
2023-02-15T11:43:05.232Z,3.12
2023-02-15T11:45:36.373Z,3.39
2023-02-15T11:48:11.730Z,3.57
2023-02-15T11:50:39.192Z,3.42
2023-02-15T11:53:15.838Z,3.15
2023-02-15T11:55:45.268Z,3.09
2023-02-15T11:58:23.591Z,2.77
2023-02-15T12:00:57.495Z,2.72
2023-02-15T12:03:31.743Z,3.12
2023-02-15T12:06:04.040Z,3.34
2023-02-15T12:08:40.090Z,3.28
2023-02-15T12:11:13.138Z,3.45
2023-02-15T12:13:57.126Z,3.48
2023-02-15T12:16:28.125Z,3.56
2023-02-15T12:18:58.357Z,3.27
2023-02-15T12:21:30.134Z,3.59
2023-02-15T12:24:02.152Z,4.01
2023-02-15T12:26:31.872Z,3.92
2023-02-15T12:29:02.943Z,4.22
2023-02-15T12:31:38.089Z,4.35
2023-02-15T12:34:13.718Z,4.06
2023-02-15T12:36:47.399Z,4.22
2023-02-15T12:39:21.598Z,4.36
2023-02-15T12:42:01.282Z,4.38
2023-02-15T12:44:30.419Z,4.83
2023-02-15T12:47:01.808Z,4.87
2023-02-15T12:49:30.082Z,4.48
2023-02-15T12:51:58.943Z,4.31
2023-02-15T12:54:39.537Z,4.25
2023-02-15T12:57:23.733Z,4.57
2023-02-15T12:59:53.342Z,4.43
2023-02-15T13:02:27.168Z,4.36
2023-02-15T13:04:57.400Z,4.26
2023-02-15T13:07:27.541Z,3.78
2023-02-15T13:09:55.522Z,3.29
2023-02-15T13:12:27.361Z,3.84
2023-02-15T13:14:57.099Z,4.42
2023-02-15T13:17:30.832Z,4.61
2023-02-15T13:20:00.526Z,5.18
2023-02-15T13:22:35.465Z,5.23
2023-02-15T13:25:12.555Z,5.24
2023-02-15T13:27:44.384Z,5.06
2023-02-15T13:30:27.953Z,4.81
2023-02-15T13:33:01.481Z,4.87
2023-02-15T13:35:40.333Z,4.80
2023-02-15T13:38:23.209Z,4.63
2023-02-15T13:40:55.415Z,4.74
2023-02-15T13:43:36.032Z,4.31
2023-02-15T13:46:16.795Z,4.21
2023-02-15T13:48:58.709Z,4.11
2023-02-15T13:51:38.684Z,4.21
2023-02-15T13:54:39.834Z,4.33
2023-02-15T13:57:23.470Z,4.01
2023-02-15T14:00:04.930Z,4.13
2023-02-15T14:02:45.331Z,3.59
2023-02-15T14:05:42.760Z,3.27
2023-02-15T14:08:15.956Z,3.28
2023-02-15T14:10:52.737Z,3.89
2023-02-15T14:14:05.617Z,4.27
2023-02-15T14:16:42.153Z,4.46
2023-02-15T14:19:21.471Z,4.61
2023-02-15T14:21:59.588Z,4.66
2023-02-15T14:24:35.693Z,4.83
2023-02-15T14:27:16.852Z,4.37
2023-02-15T14:29:51.846Z,4.55
2023-02-15T14:32:27.645Z,4.48
2023-02-15T14:34:58.906Z,4.18
2023-02-15T14:37:41.787Z,4.56
2023-02-15T14:40:35.240Z,4.55
2023-02-15T14:43:11.713Z,4.74
2023-02-15T14:45:58.118Z,4.63
2023-02-15T14:48:31.411Z,5.07
2023-02-15T14:50:59.737Z,4.74
2023-02-15T14:53:40.208Z,5.31
2023-02-15T14:56:21.728Z,5.36
2023-02-15T14:59:21.833Z,5.27
2023-02-15T15:01:57.059Z,5.10
2023-02-15T15:04:30.176Z,5.20
2023-02-15T15:07:04.143Z,4.79
2023-02-15T15:09:36.147Z,4.94
2023-02-15T15:12:37.847Z,5.00
2023-02-15T15:15:05.969Z,4.67
2023-02-15T15:17:57.099Z,4.80
2023-02-15T15:20:46.681Z,4.69
2023-02-15T15:23:43.263Z,4.38
2023-02-15T15:26:27.512Z,4.40
2023-02-15T15:29:00.085Z,4.19
2023-02-15T15:31:37.591Z,4.00
2023-02-15T15:34:30.681Z,3.66
2023-02-15T15:37:36.325Z,3.63
2023-02-15T15:40:32.466Z,3.63
2023-02-15T15:43:28.874Z,3.43
2023-02-15T15:46:12.146Z,3.23
2023-02-15T15:48:40.764Z,4.01
2023-02-15T15:51:14.525Z,3.97
2023-02-15T15:53:46.807Z,3.82
2023-02-15T15:56:21.009Z,3.60
2023-02-15T15:58:53.493Z,3.45
2023-02-15T16:01:27.946Z,3.75
2023-02-15T16:03:57.307Z,3.72
2023-02-15T16:06:30.544Z,3.93
2023-02-15T16:08:58.411Z,3.88
2023-02-15T16:11:29.004Z,3.81
2023-02-15T16:13:58.117Z,3.82
2023-02-15T16:16:29.255Z,3.90
2023-02-15T16:18:58.667Z,3.75
2023-02-15T16:21:32.551Z,3.77
2023-02-15T16:24:14.731Z,3.78
2023-02-15T16:27:01.517Z,3.74
2023-02-15T16:29:32.673Z,3.83
2023-02-15T16:32:02.060Z,3.94
2023-02-15T16:34:33.221Z,4.00
2023-02-15T16:37:17.903Z,4.01
2023-02-15T16:39:48.859Z,3.88
2023-02-15T16:42:17.754Z,3.47
2023-02-15T16:44:47.742Z,3.16
2023-02-15T16:47:19.609Z,3.59
2023-02-15T16:49:49.789Z,3.56
2023-02-15T16:52:23.117Z,3.89
2023-02-15T16:54:55.368Z,3.94
2023-02-15T16:57:25.429Z,3.72
2023-02-15T16:59:58.058Z,3.52
2023-02-15T17:02:53.103Z,2.91
2023-02-15T17:05:20.655Z,3.10
2023-02-15T17:07:53.848Z,2.83
2023-02-15T17:10:30.189Z,2.75
2023-02-15T17:13:02.958Z,2.43
2023-02-15T17:15:34.969Z,2.79
2023-02-15T17:18:06.732Z,2.52
2023-02-15T17:20:37.466Z,2.51
2023-02-15T17:23:05.912Z,2.66
2023-02-15T17:25:38.958Z,2.81
2023-02-15T17:28:17.422Z,2.45
2023-02-15T17:30:47.450Z,2.33
2023-02-15T17:33:23.293Z,2.21
2023-02-15T17:36:10.675Z,2.20
2023-02-15T17:38:39.280Z,2.18
2023-02-15T17:41:06.795Z,2.12
2023-02-15T17:43:34.297Z,2.02
2023-02-15T17:46:03.185Z,1.68
2023-02-15T17:48:33.520Z,1.35
2023-02-15T17:51:03.719Z,1.36
2023-02-15T17:53:31.790Z,1.53
2023-02-15T17:55:58.519Z,2.22
2023-02-15T17:58:25.998Z,2.26
2023-02-15T18:01:13.924Z,2.22
2023-02-15T18:04:04.002Z,1.69
2023-02-15T18:06:49.047Z,1.68
2023-02-15T18:09:36.295Z,2.11
2023-02-15T18:12:08.283Z,1.96
2023-02-15T18:14:35.757Z,1.99
2023-02-15T18:17:05.956Z,1.76
2023-02-15T18:19:36.814Z,1.53
2023-02-15T18:22:09.659Z,1.53
2023-02-15T18:24:37.123Z,1.55
2023-02-15T18:27:06.111Z,2.14
2023-02-15T18:29:33.969Z,1.79
2023-02-15T18:32:02.559Z,1.90
2023-02-15T18:34:33.751Z,1.52
2023-02-15T18:37:05.860Z,1.56
2023-02-15T18:39:38.656Z,1.64
2023-02-15T18:42:06.725Z,1.68
2023-02-15T18:44:34.237Z,1.47
2023-02-15T18:47:01.712Z,1.52
2023-02-15T18:49:29.199Z,1.66
2023-02-15T18:51:56.785Z,1.66
2023-02-15T18:54:26.391Z,1.90
2023-02-15T18:56:56.967Z,1.65
2023-02-15T18:59:26.007Z,1.60
2023-02-15T19:01:54.581Z,1.30
2023-02-15T19:04:24.211Z,1.66
2023-02-15T19:06:53.202Z,1.50
2023-02-15T19:09:23.366Z,1.41
2023-02-15T19:11:54.389Z,1.53
2023-02-15T19:14:26.455Z,1.84
2023-02-15T19:16:54.361Z,1.70
2023-02-15T19:19:22.095Z,1.80
2023-02-15T19:21:50.382Z,1.72
2023-02-15T19:24:23.214Z,1.71
2023-02-15T19:26:53.719Z,1.87
2023-02-15T19:29:26.882Z,1.96
2023-02-15T19:31:54.485Z,2.23
2023-02-15T19:34:22.278Z,1.93
2023-02-15T19:36:52.272Z,1.54
2023-02-15T19:39:29.167Z,1.64
2023-02-15T19:41:58.025Z,1.68
2023-02-15T19:44:25.860Z,1.78
2023-02-15T19:46:53.374Z,1.94
2023-02-15T19:49:21.039Z,1.72
2023-02-15T19:51:49.089Z,1.66
2023-02-15T19:54:30.675Z,1.27
2023-02-15T19:56:59.648Z,1.22
2023-02-15T19:59:29.665Z,1.21
2023-02-15T20:01:57.506Z,1.47
2023-02-15T20:04:25.484Z,1.46
2023-02-15T20:06:55.707Z,1.40
2023-02-15T20:09:25.910Z,1.35
2023-02-15T20:11:54.093Z,1.21
2023-02-15T20:14:24.163Z,1.53
2023-02-15T20:16:51.984Z,1.65
2023-02-15T20:19:19.476Z,1.31
2023-02-15T20:21:51.652Z,1.20
2023-02-15T20:24:21.753Z,1.29
2023-02-15T20:26:49.368Z,1.43
2023-02-15T20:29:19.184Z,1.80
2023-02-15T20:31:48.112Z,1.50
2023-02-15T20:34:15.715Z,1.22
2023-02-15T20:36:43.216Z,1.24
2023-02-15T20:39:16.714Z,1.77
2023-02-15T20:41:47.675Z,1.99
2023-02-15T20:44:21.149Z,1.84
2023-02-15T20:46:51.302Z,1.52
2023-02-15T20:49:19.155Z,1.52
2023-02-15T20:51:47.966Z,1.15
2023-02-15T20:54:17.379Z,1.18
2023-02-15T20:56:45.190Z,1.08
2023-02-15T20:59:23.476Z,1.29
2023-02-15T21:01:57.754Z,1.34
2023-02-15T21:04:30.465Z,1.66
2023-02-15T21:06:58.463Z,1.74
2023-02-15T21:09:26.058Z,1.45
2023-02-15T21:11:55.999Z,1.27
2023-02-15T21:14:27.067Z,1.01
2023-02-15T21:16:56.014Z,0.68
2023-02-15T21:19:25.251Z,0.34
2023-02-15T21:21:54.081Z,0.72
2023-02-15T21:24:24.604Z,0.93
2023-02-15T21:26:53.748Z,1.27
2023-02-15T21:29:22.950Z,0.96
2023-02-15T21:31:51.372Z,0.99
2023-02-15T21:34:20.892Z,0.84
2023-02-15T21:36:50.563Z,0.91
2023-02-15T21:39:20.754Z,1.21
2023-02-15T21:42:22.329Z,0.87
2023-02-15T21:45:07.618Z,0.96
2023-02-15T21:47:52.949Z,1.30
2023-02-15T21:50:40.679Z,1.37
2023-02-15T21:53:11.640Z,1.25
2023-02-15T21:55:39.126Z,1.41
2023-02-15T21:58:06.850Z,1.68
2023-02-15T22:00:34.525Z,1.82
2023-02-15T22:03:02.370Z,1.96
2023-02-15T22:05:34.084Z,1.99
2023-02-15T22:08:02.230Z,1.42
2023-02-15T22:10:32.665Z,1.57
2023-02-15T22:13:01.464Z,1.56
2023-02-15T22:15:35.068Z,1.42
2023-02-15T22:18:02.815Z,1.33
2023-02-15T22:20:31.848Z,1.11
2023-02-15T22:22:59.354Z,0.94
2023-02-15T22:25:27.668Z,0.54
2023-02-15T22:27:55.967Z,0.74
2023-02-15T22:30:26.570Z,0.87
2023-02-15T22:32:54.618Z,0.39
2023-02-15T22:35:24.504Z,0.34
2023-02-15T22:37:53.348Z,0.61
2023-02-15T22:40:22.123Z,0.65
2023-02-15T22:42:51.841Z,0.52
2023-02-15T22:45:21.722Z,0.79
2023-02-15T22:47:50.630Z,0.86
2023-02-15T22:50:20.742Z,0.92
2023-02-15T22:52:48.316Z,0.92
2023-02-15T22:55:19.344Z,0.86
2023-02-15T22:57:50.324Z,0.78
2023-02-15T23:00:19.983Z,0.82
2023-02-15T23:02:48.057Z,0.70
2023-02-15T23:05:18.960Z,0.74
2023-02-15T23:07:47.568Z,0.69
2023-02-15T23:10:21.963Z,0.64
2023-02-15T23:13:11.414Z,0.64
2023-02-15T23:15:39.453Z,0.79
2023-02-15T23:18:18.035Z,0.97
2023-02-15T23:20:46.800Z,0.82
2023-02-15T23:23:15.731Z,1.15
2023-02-15T23:25:43.686Z,1.14
2023-02-15T23:28:20.607Z,1.21
2023-02-15T23:30:48.623Z,1.04
2023-02-15T23:33:16.300Z,0.90
2023-02-15T23:35:43.756Z,1.14
2023-02-15T23:38:19.952Z,1.15
2023-02-15T23:41:08.772Z,1.14
2023-02-15T23:43:38.309Z,0.94
2023-02-15T23:46:07.451Z,0.96
2023-02-15T23:48:38.372Z,0.91
2023-02-15T23:51:06.943Z,0.86
2023-02-15T23:53:34.744Z,0.73
2023-02-15T23:56:02.623Z,0.35
2023-02-15T23:58:38.298Z,0.31
